Time;durP1;ratioP1;P1;durP2;ratioP2;P2;SDS_P1;SDS_P2;PMS_P1;PMS_P2;Temp;Humidity;BMP_temperature;BMP_pressure;BME280_temperature;BME280_humidity;BME280_pressure;Samples;Min_cycle;Max_cycle;Signal;HPM_P1;HPM_P2
2023/11/12 00:00:56;;;;;;;22.90;19.75;;;4.40;95.10;;;;;;5025120;28;20033;-75
2023/11/12 00:03:21;;;;;;;27.20;19.00;;;4.30;95.10;;;;;;5040634;28;20026;-75
2023/11/12 00:05:50;;;;;;;21.75;18.33;;;4.30;95.10;;;;;;5021741;28;20091;-76
2023/11/12 00:08:18;;;;;;;23.63;18.38;;;4.30;95.10;;;;;;5021731;28;20121;-75
2023/11/12 00:10:44;;;;;;;23.85;18.73;;;4.30;95.10;;;;;;5019429;28;20041;-76
2023/11/12 00:13:10;;;;;;;23.30;18.83;;;4.30;95.20;;;;;;5021277;28;20029;-75
2023/11/12 00:15:35;;;;;;;22.42;18.60;;;4.20;95.20;;;;;;5019310;28;20042;-77
2023/11/12 00:18:01;;;;;;;21.08;16.50;;;4.20;95.20;;;;;;5026362;28;20140;-75
2023/11/12 00:20:28;;;;;;;20.70;16.88;;;4.20;95.40;;;;;;5022159;28;20058;-75
2023/11/12 00:22:54;;;;;;;23.73;17.65;;;4.20;95.40;;;;;;5023297;28;20485;-76
2023/11/12 00:25:20;;;;;;;24.02;17.35;;;4.20;95.40;;;;;;5021222;28;20308;-76
2023/11/12 00:27:45;;;;;;;20.80;16.65;;;4.20;95.50;;;;;;5020834;28;20056;-79
2023/11/12 00:30:11;;;;;;;19.77;16.10;;;4.20;95.60;;;;;;5024909;28;20033;-76
2023/11/12 00:32:37;;;;;;;18.83;15.18;;;4.30;95.60;;;;;;5015041;28;20037;-77
2023/11/12 00:35:04;;;;;;;24.15;17.75;;;4.40;95.60;;;;;;5024788;28;20025;-77
2023/11/12 00:37:30;;;;;;;21.73;17.30;;;4.40;95.60;;;;;;5021703;28;20242;-79
2023/11/12 00:39:56;;;;;;;21.60;16.52;;;4.40;95.70;;;;;;5023546;28;20029;-77
2023/11/12 00:42:22;;;;;;;21.77;17.00;;;4.30;95.70;;;;;;5022134;28;20056;-77
2023/11/12 00:44:47;;;;;;;22.25;17.20;;;4.40;95.70;;;;;;5026675;28;20473;-75
2023/11/12 00:47:13;;;;;;;23.70;16.60;;;4.40;95.80;;;;;;5024819;28;20087;-77
2023/11/12 00:49:38;;;;;;;23.55;18.50;;;4.40;95.80;;;;;;5022703;28;20462;-75
2023/11/12 00:52:05;;;;;;;27.00;17.63;;;4.40;95.90;;;;;;5023841;28;20057;-76
2023/11/12 00:54:30;;;;;;;25.23;17.73;;;4.40;95.90;;;;;;5024305;28;20071;-78
2023/11/12 00:56:56;;;;;;;27.27;18.75;;;4.40;95.90;;;;;;5023714;28;20057;-76
2023/11/12 00:59:24;;;;;;;23.80;16.80;;;4.40;95.90;;;;;;5020673;28;20080;-75
2023/11/12 01:01:50;;;;;;;23.92;16.67;;;4.40;95.90;;;;;;5023522;28;20037;-76
2023/11/12 01:04:16;;;;;;;24.13;16.63;;;4.50;96.00;;;;;;5023529;28;20025;-77
2023/11/12 01:06:41;;;;;;;22.10;16.30;;;4.50;96.00;;;;;;5021417;28;20044;-75
2023/11/12 01:09:10;;;;;;;20.85;16.02;;;4.50;96.00;;;;;;5025379;28;20029;-75
2023/11/12 01:11:37;;;;;;;23.70;16.80;;;4.60;96.00;;;;;;5023164;28;20025;-77
2023/11/12 01:14:03;;;;;;;21.00;16.10;;;4.50;96.00;;;;;;5025387;28;20092;-76
2023/11/12 01:16:29;;;;;;;25.73;16.02;;;4.60;96.00;;;;;;5018992;28;20152;-79
2023/11/12 01:18:58;;;;;;;21.40;15.65;;;4.60;96.10;;;;;;5026027;28;20109;-75
2023/11/12 01:21:24;;;;;;;20.17;15.23;;;4.60;96.10;;;;;;5024905;28;20079;-76
2023/11/12 01:23:50;;;;;;;21.77;15.45;;;4.60;96.10;;;;;;5023377;28;20336;-78
2023/11/12 01:26:16;;;;;;;22.23;15.52;;;4.60;96.10;;;;;;5023605;28;20473;-75
2023/11/12 01:28:42;;;;;;;20.23;15.55;;;4.60;96.10;;;;;;5019995;28;20056;-76
2023/11/12 01:31:07;;;;;;;21.95;15.75;;;4.60;96.10;;;;;;5016267;28;20034;-76
2023/11/12 01:33:34;;;;;;;23.15;15.15;;;4.60;96.10;;;;;;5020224;28;20524;-76
2023/11/12 01:36:00;;;;;;;20.58;15.07;;;4.60;96.00;;;;;;5023306;28;20121;-79
2023/11/12 01:38:26;;;;;;;21.33;15.88;;;4.60;96.00;;;;;;5025377;28;20099;-76
2023/11/12 01:40:53;;;;;;;24.10;14.95;;;4.70;95.90;;;;;;5022326;28;20112;-78
2023/11/12 01:43:19;;;;;;;24.65;15.70;;;4.60;95.90;;;;;;5025432;28;20038;-77
2023/11/12 01:45:45;;;;;;;21.08;14.68;;;4.60;95.80;;;;;;5020778;28;20034;-76
2023/11/12 01:48:15;;;;;;;18.48;14.45;;;4.60;95.70;;;;;;5022673;28;20050;-75
2023/11/12 01:50:42;;;;;;;25.05;15.48;;;4.60;95.60;;;;;;5026173;28;20037;-76
2023/11/12 01:53:13;;;;;;;25.40;16.92;;;4.60;95.60;;;;;;5024245;28;20059;-79
2023/11/12 01:55:39;;;;;;;22.95;15.82;;;4.60;95.60;;;;;;5047638;28;20049;-80
2023/11/12 01:58:05;;;;;;;22.27;15.68;;;4.60;95.60;;;;;;5044591;28;20082;-78
2023/11/12 02:00:33;;;;;;;40.65;25.65;;;4.50;95.60;;;;;;5040645;28;20022;-76
2023/11/12 02:02:59;;;;;;;41.08;23.73;;;4.50;95.60;;;;;;5017523;28;20332;-76
2023/11/12 02:05:25;;;;;;;49.90;29.20;;;4.50;95.70;;;;;;5025431;28;20466;-76
2023/11/12 02:07:51;;;;;;;32.38;20.17;;;4.50;95.80;;;;;;5023056;28;20083;-76
2023/11/12 02:10:17;;;;;;;28.75;19.83;;;4.50;95.80;;;;;;5022609;28;20651;-75
2023/11/12 02:12:46;;;;;;;54.67;31.08;;;4.40;95.80;;;;;;5022729;28;20511;-77
2023/11/12 02:15:16;;;;;;;47.08;25.98;;;4.40;95.90;;;;;;5023088;28;20045;-76
2023/11/12 02:17:43;;;;;;;55.60;40.33;;;4.40;96.00;;;;;;5022736;28;20171;-76
2023/11/12 02:20:20;;;;;;;40.17;29.58;;;4.40;96.10;;;;;;5021651;28;20563;-76
2023/11/12 02:22:46;;;;;;;33.60;25.58;;;4.40;96.10;;;;;;5020886;28;20041;-75
2023/11/12 02:25:13;;;;;;;25.90;20.25;;;4.50;96.20;;;;;;5021877;28;20057;-75
2023/11/12 02:27:39;;;;;;;25.20;20.63;;;4.50;96.30;;;;;;5019453;28;20033;-76
2023/11/12 02:30:08;;;;;;;26.98;19.70;;;4.40;96.30;;;;;;5021739;28;20344;-77
2023/11/12 02:32:34;;;;;;;25.95;18.50;;;4.50;96.30;;;;;;5017358;28;20030;-76
2023/11/12 02:35:02;;;;;;;25.23;17.52;;;4.50;96.40;;;;;;5020436;28;20029;-76
2023/11/12 02:37:28;;;;;;;27.98;18.63;;;4.50;96.40;;;;;;5022091;28;20121;-76
2023/11/12 02:39:54;;;;;;;24.60;16.60;;;4.50;96.50;;;;;;5020297;28;20025;-76
2023/11/12 02:42:20;;;;;;;26.88;17.60;;;4.50;96.50;;;;;;5023578;28;20375;-77
2023/11/12 02:44:46;;;;;;;23.55;17.15;;;4.50;96.50;;;;;;5026911;28;20079;-77
2023/11/12 02:47:12;;;;;;;24.60;17.23;;;4.50;96.60;;;;;;5016671;28;20042;-75
2023/11/12 02:50:11;;;;;;;26.42;16.63;;;4.40;96.60;;;;;;5020647;28;20041;-78
2023/11/12 02:52:36;;;;;;;23.90;18.70;;;4.40;96.60;;;;;;5015086;28;20030;-76
2023/11/12 02:55:02;;;;;;;24.33;17.42;;;4.40;96.60;;;;;;5019026;28;20030;-74
2023/11/12 02:57:28;;;;;;;25.00;17.00;;;4.40;96.70;;;;;;5018758;28;20033;-76
2023/11/12 02:59:54;;;;;;;25.05;17.98;;;4.40;96.70;;;;;;5017330;28;20025;-76
2023/11/12 03:02:20;;;;;;;22.15;17.05;;;4.30;96.70;;;;;;5019590;28;20108;-76
2023/11/12 03:04:49;;;;;;;22.70;16.90;;;4.30;96.70;;;;;;5014313;28;20033;-75
2023/11/12 03:07:15;;;;;;;27.08;19.23;;;4.30;96.80;;;;;;5017443;28;20128;-76
2023/11/12 03:09:40;;;;;;;24.23;18.40;;;4.30;96.80;;;;;;5013840;28;20109;-78
2023/11/12 03:12:06;;;;;;;23.67;16.67;;;4.30;96.90;;;;;;5014718;28;20075;-75
2023/11/12 03:14:33;;;;;;;20.50;16.58;;;4.40;96.90;;;;;;5016828;28;20026;-73
2023/11/12 03:16:59;;;;;;;22.08;15.25;;;4.30;96.90;;;;;;5017409;28;20040;-78
2023/11/12 03:19:25;;;;;;;23.20;17.30;;;4.30;96.90;;;;;;5015574;28;20025;-75
2023/11/12 03:21:55;;;;;;;21.20;16.80;;;4.40;96.90;;;;;;5019230;28;20072;-77
2023/11/12 03:24:21;;;;;;;25.40;18.20;;;4.30;96.90;;;;;;5015419;28;20060;-80
2023/11/12 03:26:50;;;;;;;23.38;16.92;;;4.30;96.80;;;;;;5029219;28;20034;-75
2023/11/12 03:29:16;;;;;;;24.80;17.27;;;4.20;96.80;;;;;;5022063;28;20045;-75
2023/11/12 03:31:41;;;;;;;21.77;16.85;;;4.30;96.80;;;;;;5017244;28;20061;-77
2023/11/12 03:34:07;;;;;;;26.35;17.65;;;4.30;96.80;;;;;;5026376;28;20544;-74
2023/11/12 03:36:33;;;;;;;22.67;16.73;;;4.20;96.70;;;;;;5018068;28;20125;-76
2023/11/12 03:38:59;;;;;;;21.38;16.08;;;4.20;96.80;;;;;;5024149;28;20128;-81
2023/11/12 03:41:24;;;;;;;24.02;17.60;;;4.20;96.80;;;;;;5025834;28;20029;-79
2023/11/12 03:43:50;;;;;;;23.48;15.98;;;4.20;96.70;;;;;;5024444;28;20029;-76
2023/11/12 03:46:16;;;;;;;21.15;15.70;;;4.20;96.70;;;;;;5017168;28;20062;-77
2023/11/12 03:48:41;;;;;;;23.10;16.65;;;4.20;96.80;;;;;;5024065;28;20463;-76
2023/11/12 03:51:07;;;;;;;19.95;15.15;;;4.20;96.70;;;;;;5027483;28;20403;-76
2023/11/12 03:53:32;;;;;;;23.23;16.50;;;4.20;96.70;;;;;;5025435;28;20425;-76
2023/11/12 03:55:58;;;;;;;22.05;16.75;;;4.20;96.70;;;;;;5037480;28;20037;-77
2023/11/12 03:58:24;;;;;;;23.27;16.17;;;4.20;96.70;;;;;;5023829;28;20119;-76
2023/11/12 04:00:50;;;;;;;20.65;16.95;;;4.20;96.70;;;;;;5024344;28;20037;-76
2023/11/12 04:03:17;;;;;;;24.95;17.00;;;4.30;96.80;;;;;;5024485;28;20107;-79
2023/11/12 04:05:43;;;;;;;25.08;18.95;;;4.30;96.70;;;;;;5023276;28;20053;-78
2023/11/12 04:08:09;;;;;;;26.60;19.02;;;4.30;96.70;;;;;;5025537;28;20611;-77
2023/11/12 04:10:34;;;;;;;25.38;18.30;;;4.30;96.80;;;;;;5024082;28;20113;-76
2023/11/12 04:13:02;;;;;;;28.02;20.13;;;4.40;96.80;;;;;;5020842;28;20065;-76
2023/11/12 04:15:27;;;;;;;22.73;18.40;;;4.40;96.80;;;;;;5018160;28;20125;-78
2023/11/12 04:17:54;;;;;;;26.67;19.10;;;4.40;96.90;;;;;;5020062;28;20192;-75
2023/11/12 04:20:19;;;;;;;24.98;19.27;;;4.50;96.80;;;;;;5024111;28;20081;-77
2023/11/12 04:22:45;;;;;;;21.73;18.08;;;4.50;96.80;;;;;;5015376;28;20038;-78
2023/11/12 04:25:11;;;;;;;26.95;20.48;;;4.50;96.80;;;;;;5020394;28;20045;-76
2023/11/12 04:27:37;;;;;;;23.95;18.77;;;4.60;96.90;;;;;;5012673;28;20038;-77
2023/11/12 04:30:05;;;;;;;22.33;18.92;;;4.60;97.00;;;;;;5023011;28;20140;-76
2023/11/12 04:32:32;;;;;;;24.92;20.15;;;4.60;97.00;;;;;;5019522;28;20168;-76
2023/11/12 04:34:58;;;;;;;25.92;19.88;;;4.70;97.10;;;;;;5013419;28;20041;-76
2023/11/12 04:37:24;;;;;;;26.88;19.63;;;4.70;97.10;;;;;;5019673;28;20041;-75
2023/11/12 04:39:50;;;;;;;24.42;19.13;;;4.70;97.10;;;;;;5018614;28;20670;-76
2023/11/12 04:42:17;;;;;;;34.92;20.38;;;4.70;97.20;;;;;;5021566;28;20026;-78
2023/11/12 04:44:43;;;;;;;27.77;21.23;;;4.80;97.30;;;;;;5017594;28;20520;-77
2023/11/12 04:47:09;;;;;;;29.48;21.00;;;4.90;97.30;;;;;;5019532;28;20041;-78
2023/11/12 04:49:35;;;;;;;26.95;20.38;;;4.90;97.30;;;;;;5018598;28;20359;-78
2023/11/12 04:52:00;;;;;;;35.10;21.75;;;4.90;97.30;;;;;;5016446;28;20147;-79
2023/11/12 04:54:26;;;;;;;26.80;20.23;;;4.90;97.30;;;;;;5020775;28;20485;-76
2023/11/12 04:56:52;;;;;;;28.83;20.65;;;5.00;97.30;;;;;;5019944;28;20041;-76
2023/11/12 04:59:17;;;;;;;31.70;22.13;;;5.00;97.30;;;;;;5019961;28;20087;-74
2023/11/12 05:01:43;;;;;;;28.35;21.05;;;5.00;97.30;;;;;;5016360;28;20037;-76
2023/11/12 05:04:09;;;;;;;37.90;23.02;;;5.00;97.40;;;;;;5015213;28;20018;-76
2023/11/12 05:06:34;;;;;;;26.80;20.83;;;5.00;97.40;;;;;;5020043;28;20046;-73
2023/11/12 05:09:00;;;;;;;26.77;19.58;;;5.00;97.40;;;;;;5021274;28;20471;-74
2023/11/12 05:11:26;;;;;;;24.17;17.70;;;5.00;97.40;;;;;;5018490;28;20025;-73
2023/11/12 05:13:52;;;;;;;31.77;20.55;;;5.00;97.40;;;;;;5014986;28;20026;-77
2023/11/12 05:16:17;;;;;;;26.98;18.98;;;5.00;97.50;;;;;;5022923;28;20493;-76
2023/11/12 05:18:43;;;;;;;28.33;19.92;;;5.00;97.50;;;;;;5020431;28;20033;-79
2023/11/12 05:21:09;;;;;;;27.80;19.50;;;5.00;97.50;;;;;;5021923;28;20053;-76
2023/11/12 05:23:36;;;;;;;27.52;20.17;;;5.00;97.50;;;;;;5024661;28;20029;-79
2023/11/12 05:26:01;;;;;;;28.65;20.48;;;5.00;97.60;;;;;;5017383;28;20152;-77
2023/11/12 05:28:27;;;;;;;27.67;18.77;;;5.00;97.60;;;;;;5015063;28;20473;-77
2023/11/12 05:30:53;;;;;;;26.88;19.33;;;5.10;97.60;;;;;;5016601;28;20036;-79
2023/11/12 05:33:19;;;;;;;27.35;18.83;;;5.10;97.60;;;;;;5013383;28;20359;-76
2023/11/12 05:35:45;;;;;;;24.63;18.13;;;5.10;97.60;;;;;;5016617;28;20049;-77
2023/11/12 05:38:11;;;;;;;24.25;17.38;;;5.10;97.60;;;;;;5012002;28;20111;-75
2023/11/12 05:40:38;;;;;;;23.25;17.10;;;5.10;97.60;;;;;;5020667;28;20061;-76
2023/11/12 05:43:04;;;;;;;22.25;17.00;;;5.10;97.60;;;;;;5017791;28;20139;-76
2023/11/12 05:45:30;;;;;;;21.98;15.93;;;5.10;97.60;;;;;;5019712;28;20093;-79
2023/11/12 05:47:55;;;;;;;24.67;17.23;;;5.10;97.60;;;;;;5022144;28;20124;-76
2023/11/12 05:50:23;;;;;;;22.83;16.65;;;5.10;97.60;;;;;;5018582;28;20045;-76
2023/11/12 05:52:48;;;;;;;21.75;15.88;;;5.10;97.60;;;;;;5019174;28;20033;-75
2023/11/12 05:55:14;;;;;;;22.05;16.52;;;5.10;97.60;;;;;;5022778;28;20029;-76
2023/11/12 05:57:41;;;;;;;22.40;16.85;;;5.10;97.70;;;;;;5016040;28;20057;-74
2023/11/12 06:00:10;;;;;;;28.45;20.25;;;5.10;97.70;;;;;;5019311;28;20056;-75
2023/11/12 06:02:39;;;;;;;32.80;22.20;;;5.10;97.70;;;;;;5022243;28;20045;-79
2023/11/12 06:05:06;;;;;;;35.10;24.08;;;5.10;97.60;;;;;;5022301;28;20112;-75
2023/11/12 06:07:32;;;;;;;23.88;19.00;;;5.10;97.70;;;;;;5022129;28;20120;-76
2023/11/12 06:09:59;;;;;;;26.08;17.40;;;5.20;97.70;;;;;;5020775;28;20042;-76
2023/11/12 06:12:25;;;;;;;22.42;15.45;;;5.20;97.70;;;;;;5020161;28;20080;-76
2023/11/12 06:14:50;;;;;;;23.67;15.93;;;5.20;97.70;;;;;;5021996;28;20125;-79
2023/11/12 06:17:16;;;;;;;25.42;17.42;;;5.30;97.80;;;;;;5020039;28;20437;-75
2023/11/12 06:19:42;;;;;;;25.27;16.35;;;5.30;97.70;;;;;;5023777;28;20036;-76
2023/11/12 06:22:07;;;;;;;23.67;16.27;;;5.30;97.80;;;;;;5016428;28;20184;-77
2023/11/12 06:24:33;;;;;;;26.17;18.48;;;5.30;97.80;;;;;;5016921;28;20178;-75
2023/11/12 06:26:59;;;;;;;25.17;16.80;;;5.40;97.90;;;;;;5021559;28;20033;-76
2023/11/12 06:29:25;;;;;;;27.33;17.45;;;5.40;97.80;;;;;;5024347;28;20132;-75
2023/11/12 06:31:51;;;;;;;25.45;17.38;;;5.40;97.80;;;;;;5015397;28;20384;-79
2023/11/12 06:34:17;;;;;;;25.88;18.55;;;5.40;97.90;;;;;;5017377;28;20128;-76
2023/11/12 06:36:43;;;;;;;84.35;64.45;;;5.50;98.00;;;;;;5020076;28;20044;-76
2023/11/12 06:39:13;;;;;;;40.00;28.02;;;5.50;98.00;;;;;;5027510;28;20030;-79
2023/11/12 06:41:40;;;;;;;28.48;18.52;;;5.50;98.00;;;;;;5045048;28;20159;-79
2023/11/12 06:44:05;;;;;;;31.77;18.80;;;5.60;98.10;;;;;;5043358;28;20294;-80
2023/11/12 06:46:31;;;;;;;27.35;18.98;;;5.60;98.10;;;;;;5028857;28;20049;-80
2023/11/12 06:48:57;;;;;;;31.35;20.08;;;5.60;98.10;;;;;;5017561;28;20030;-77
2023/11/12 06:51:24;;;;;;;28.13;19.92;;;5.60;98.20;;;;;;5017038;28;20099;-77
2023/11/12 06:53:50;;;;;;;29.83;19.33;;;5.60;98.20;;;;;;5018490;28;20375;-75
2023/11/12 06:56:16;;;;;;;31.00;18.92;;;5.70;98.30;;;;;;5018092;28;20033;-75
2023/11/12 06:58:41;;;;;;;29.52;19.25;;;5.70;98.20;;;;;;5020039;28;20025;-75
2023/11/12 07:01:07;;;;;;;30.00;18.50;;;5.70;98.30;;;;;;5022404;28;20030;-77
2023/11/12 07:03:32;;;;;;;27.75;18.55;;;5.80;98.30;;;;;;5016391;28;20049;-75
2023/11/12 07:06:01;;;;;;;30.13;18.40;;;5.80;98.40;;;;;;5017313;28;20038;-76
2023/11/12 07:08:27;;;;;;;28.52;18.08;;;5.80;98.40;;;;;;5016047;28;20042;-76
2023/11/12 07:10:53;;;;;;;28.05;18.40;;;5.90;98.40;;;;;;5013993;28;20088;-75
2023/11/12 07:13:19;;;;;;;32.13;19.67;;;5.90;98.40;;;;;;5019111;28;20306;-78
2023/11/12 07:15:45;;;;;;;31.25;20.45;;;5.90;98.40;;;;;;5017657;28;20033;-74
2023/11/12 07:18:11;;;;;;;27.75;18.98;;;6.00;98.40;;;;;;5019898;28;20468;-77
2023/11/12 07:20:38;;;;;;;31.88;19.92;;;6.00;98.50;;;;;;5019720;28;20062;-78
2023/11/12 07:23:04;;;;;;;28.08;19.55;;;6.10;98.50;;;;;;5021110;28;20393;-76
2023/11/12 07:25:30;;;;;;;29.25;19.95;;;6.10;98.50;;;;;;5020234;28;20132;-75
2023/11/12 07:27:56;;;;;;;29.10;18.70;;;6.10;98.50;;;;;;5018866;28;20140;-77
2023/11/12 07:30:22;;;;;;;35.22;20.83;;;6.10;98.50;;;;;;5014766;28;20045;-75
2023/11/12 07:32:47;;;;;;;31.10;19.60;;;6.20;98.50;;;;;;5016347;28;20025;-75
2023/11/12 07:35:13;;;;;;;30.25;19.58;;;6.20;98.50;;;;;;5020989;28;20371;-78
2023/11/12 07:37:43;;;;;;;40.33;20.67;;;6.20;98.60;;;;;;5017931;28;20079;-77
2023/11/12 07:40:11;;;;;;;34.22;20.63;;;6.30;98.60;;;;;;5014890;28;20030;-75
2023/11/12 07:42:40;;;;;;;34.05;21.58;;;6.30;98.60;;;;;;5019800;28;20037;-78
2023/11/12 07:45:08;;;;;;;36.80;21.92;;;6.40;98.60;;;;;;5014276;28;20041;-77
2023/11/12 07:47:35;;;;;;;38.92;22.80;;;6.40;98.60;;;;;;5016842;28;20133;-75
2023/11/12 07:50:01;;;;;;;36.58;22.42;;;6.50;98.60;;;;;;5017415;28;20030;-79
2023/11/12 07:52:27;;;;;;;40.65;23.15;;;6.50;98.60;;;;;;5018377;28;20121;-76
2023/11/12 07:54:52;;;;;;;37.75;22.73;;;6.50;98.70;;;;;;5017949;28;20425;-76
2023/11/12 07:57:18;;;;;;;34.67;22.08;;;6.60;98.70;;;;;;5014038;28;20125;-76
2023/11/12 07:59:44;;;;;;;37.72;22.25;;;6.60;98.60;;;;;;5020032;28;20045;-75
2023/11/12 08:02:09;;;;;;;36.80;20.75;;;6.60;98.70;;;;;;5016118;28;20030;-75
2023/11/12 08:04:35;;;;;;;35.22;21.05;;;6.70;98.60;;;;;;5023131;28;20041;-75
2023/11/12 08:07:00;;;;;;;36.17;21.77;;;6.70;98.70;;;;;;5010828;28;20613;-75
2023/11/12 08:09:26;;;;;;;33.72;20.98;;;6.80;98.70;;;;;;5021614;28;20021;-76
2023/11/12 08:11:52;;;;;;;36.03;20.25;;;6.80;98.60;;;;;;5012705;28;20385;-76
2023/11/12 08:14:17;;;;;;;36.08;23.40;;;6.80;98.60;;;;;;5020063;28;20429;-75
2023/11/12 08:16:43;;;;;;;40.15;22.00;;;6.80;98.60;;;;;;5020819;28;20398;-77
2023/11/12 08:19:09;;;;;;;35.95;20.40;;;6.80;98.60;;;;;;5017438;28;20121;-74
2023/11/12 08:21:34;;;;;;;35.70;20.75;;;6.90;98.60;;;;;;5019859;28;20099;-77
2023/11/12 08:24:00;;;;;;;37.38;22.20;;;6.90;98.60;;;;;;5018833;28;20029;-77
2023/11/12 08:26:29;;;;;;;40.85;23.77;;;7.00;98.60;;;;;;5028068;28;20068;-75
2023/11/12 08:28:57;;;;;;;40.42;24.13;;;7.00;98.60;;;;;;5021860;28;20041;-75
2023/11/12 08:31:24;;;;;;;43.53;24.80;;;7.10;98.60;;;;;;5021476;28;20042;-75
2023/11/12 08:33:49;;;;;;;42.97;23.83;;;7.10;98.60;;;;;;5020619;28;20018;-75
2023/11/12 08:36:15;;;;;;;42.08;25.02;;;7.10;98.50;;;;;;5018257;28;20038;-75
2023/11/12 08:38:41;;;;;;;42.25;25.35;;;7.20;98.50;;;;;;5016313;28;20026;-81
2023/11/12 08:41:08;;;;;;;43.13;24.50;;;7.20;98.40;;;;;;5026232;28;20033;-81
2023/11/12 08:43:33;;;;;;;41.90;24.00;;;7.20;98.30;;;;;;5022759;28;20045;-81
2023/11/12 08:45:59;;;;;;;42.67;23.40;;;7.20;98.20;;;;;;5026706;28;20509;-81
2023/11/12 08:48:31;;;;;;;39.17;25.27;;;7.30;98.30;;;;;;5024356;28;20497;-79
2023/11/12 08:51:00;;;;;;;40.03;24.83;;;7.30;98.20;;;;;;5023372;28;20047;-81
2023/11/12 08:53:27;;;;;;;41.72;25.40;;;7.40;98.20;;;;;;5025381;28;20459;-81
2023/11/12 08:55:52;;;;;;;44.88;26.23;;;7.40;98.10;;;;;;5017765;28;20040;-81
2023/11/12 08:58:20;;;;;;;42.63;25.90;;;7.40;97.80;;;;;;5021539;28;20474;-80
2023/11/12 09:00:46;;;;;;;42.20;26.25;;;7.40;97.80;;;;;;5021891;28;20025;-80
2023/11/12 09:03:11;;;;;;;42.38;27.08;;;7.40;97.90;;;;;;5017108;28;20034;-81
2023/11/12 09:05:37;;;;;;;45.72;25.38;;;7.50;97.80;;;;;;5021699;28;20474;-79
2023/11/12 09:08:02;;;;;;;41.40;25.50;;;7.50;97.80;;;;;;5018855;28;20332;-80
2023/11/12 09:10:28;;;;;;;47.63;26.10;;;7.60;97.70;;;;;;5024731;28;20398;-81
2023/11/12 09:12:53;;;;;;;38.63;24.40;;;7.60;97.70;;;;;;5019912;28;20109;-81
2023/11/12 09:15:19;;;;;;;38.70;24.75;;;7.70;97.60;;;;;;5022871;28;20054;-81
2023/11/12 09:17:45;;;;;;;39.28;24.05;;;7.70;97.40;;;;;;5021540;28;20025;-79
2023/11/12 09:20:14;;;;;;;38.33;22.77;;;7.70;97.30;;;;;;5023719;28;20742;-80
2023/11/12 09:22:40;;;;;;;35.78;22.17;;;7.80;97.20;;;;;;5024449;28;20337;-80
2023/11/12 09:25:06;;;;;;;38.67;23.42;;;7.90;97.00;;;;;;5024631;28;20544;-81
2023/11/12 09:27:32;;;;;;;34.00;21.55;;;7.90;96.80;;;;;;5020113;28;20136;-81
2023/11/12 09:30:00;;;;;;;33.75;21.75;;;8.00;96.90;;;;;;5021636;28;20120;-81
2023/11/12 09:32:26;;;;;;;32.25;20.73;;;8.10;97.00;;;;;;5016582;28;20030;-81
2023/11/12 09:34:51;;;;;;;27.50;19.33;;;8.20;97.00;;;;;;5017123;28;20041;-78
2023/11/12 09:37:17;;;;;;;28.13;18.13;;;8.30;96.50;;;;;;5019591;28;20033;-81
2023/11/12 09:39:43;;;;;;;25.42;17.90;;;8.30;96.20;;;;;;5016876;28;20104;-81
2023/11/12 09:42:12;;;;;;;26.92;18.08;;;8.40;96.10;;;;;;5020296;28;20448;-79
2023/11/12 09:44:41;;;;;;;27.13;18.27;;;8.40;95.90;;;;;;5018147;28;20107;-82
2023/11/12 09:47:13;;;;;;;25.60;17.13;;;8.40;95.70;;;;;;5017162;28;20045;-81
2023/11/12 09:49:40;;;;;;;26.20;17.10;;;8.50;95.50;;;;;;5016509;28;20036;-81
2023/11/12 09:52:06;;;;;;;25.10;17.73;;;8.50;95.30;;;;;;5019496;28;20036;-81
2023/11/12 09:54:36;;;;;;;23.60;16.40;;;8.60;95.30;;;;;;5011018;28;21041;-81
2023/11/12 09:57:02;;;;;;;27.38;17.05;;;8.70;95.30;;;;;;5028528;28;20200;-81
2023/11/12 09:59:30;;;;;;;25.70;17.33;;;8.90;95.30;;;;;;5015634;28;20026;-79
2023/11/12 10:01:56;;;;;;;24.30;16.17;;;9.00;95.10;;;;;;5016197;28;20048;-82
2023/11/12 10:04:21;;;;;;;21.70;15.38;;;9.10;94.80;;;;;;5018405;28;20033;-80
2023/11/12 10:06:49;;;;;;;23.52;18.45;;;9.20;94.50;;;;;;5014705;28;20045;-83
2023/11/12 10:09:28;;;;;;;20.13;15.63;;;9.30;94.20;;;;;;5017880;28;20053;-81
2023/11/12 10:12:06;;;;;;;19.85;15.27;;;9.40;93.70;;;;;;5014681;28;20087;-85
2023/11/12 10:14:32;;;;;;;20.25;15.15;;;9.60;93.50;;;;;;5014835;28;20029;-81
2023/11/12 10:17:07;;;;;;;20.48;14.45;;;9.60;92.90;;;;;;5017964;28;20043;-81
2023/11/12 10:19:37;;;;;;;24.35;16.30;;;9.70;92.90;;;;;;5016504;28;20299;-85
2023/11/12 10:22:06;;;;;;;20.73;12.55;;;9.70;92.60;;;;;;5013618;28;20512;-87
2023/11/12 10:24:45;;;;;;;21.38;13.27;;;9.80;92.10;;;;;;5018670;28;20029;-81
2023/11/12 10:27:14;;;;;;;20.42;13.27;;;9.90;92.30;;;;;;5016570;28;20543;-86
2023/11/12 10:29:41;;;;;;;19.30;12.68;;;9.90;91.50;;;;;;5018916;28;20037;-83
2023/11/12 10:32:07;;;;;;;16.90;11.55;;;10.10;91.90;;;;;;5012970;28;20026;-85
2023/11/12 10:34:33;;;;;;;18.42;11.63;;;10.20;91.20;;;;;;5014530;28;21325;-82
2023/11/12 10:37:09;;;;;;;17.48;10.77;;;10.30;90.80;;;;;;5018886;28;20084;-86
2023/11/12 10:39:36;;;;;;;16.48;10.18;;;10.40;90.70;;;;;;5015696;28;20026;-81
2023/11/12 10:42:02;;;;;;;18.65;9.95;;;10.40;90.50;;;;;;5018583;28;20065;-77
2023/11/12 10:44:29;;;;;;;16.83;10.00;;;10.40;89.80;;;;;;5019345;28;20037;-78
2023/11/12 10:46:57;;;;;;;14.57;9.85;;;10.40;90.00;;;;;;5018704;28;20659;-78
2023/11/12 10:49:23;;;;;;;17.48;9.93;;;10.40;90.00;;;;;;5019939;28;20034;-77
2023/11/12 10:51:50;;;;;;;15.60;9.98;;;10.30;89.60;;;;;;5017471;28;20360;-80
2023/11/12 10:54:16;;;;;;;18.05;9.80;;;10.20;89.80;;;;;;5023153;28;20470;-82
2023/11/12 10:56:45;;;;;;;14.07;8.55;;;10.20;89.90;;;;;;5018687;28;20091;-78
2023/11/12 10:59:13;;;;;;;15.15;8.77;;;10.10;89.80;;;;;;5021767;28;20018;-78
2023/11/12 11:01:39;;;;;;;14.18;8.52;;;10.10;89.90;;;;;;5015498;28;20037;-74
2023/11/12 11:04:08;;;;;;;15.88;9.32;;;10.00;89.80;;;;;;5018354;28;20036;-75
2023/11/12 11:06:36;;;;;;;15.48;9.57;;;10.00;90.10;;;;;;5019018;28;20050;-73
2023/11/12 11:09:01;;;;;;;12.80;8.48;;;10.00;90.10;;;;;;5016329;28;20579;-74
2023/11/12 11:11:27;;;;;;;12.82;7.97;;;10.10;90.40;;;;;;5020986;28;20140;-74
2023/11/12 11:13:52;;;;;;;14.15;8.65;;;10.10;90.40;;;;;;5019610;28;20410;-72
2023/11/12 11:16:47;;;;;;;16.23;8.38;;;10.10;90.60;;;;;;5017232;28;20048;-73
2023/11/12 11:19:13;;;;;;;15.35;8.48;;;10.10;90.50;;;;;;5039154;28;20448;-76
2023/11/12 11:21:38;;;;;;;13.52;9.23;;;10.10;90.30;;;;;;5022145;28;20427;-75
2023/11/12 11:24:04;;;;;;;13.27;8.15;;;10.20;90.30;;;;;;5021659;28;20426;-73
2023/11/12 11:26:37;;;;;;;14.18;7.40;;;10.10;89.80;;;;;;5039915;28;20053;-76
2023/11/12 11:29:04;;;;;;;10.20;6.60;;;10.00;89.90;;;;;;5038050;28;20045;-74
2023/11/12 11:31:34;;;;;;;12.90;6.88;;;10.00;89.80;;;;;;5035630;28;20072;-75
2023/11/12 11:34:03;;;;;;;13.50;6.57;;;10.10;89.60;;;;;;5019066;28;20120;-76
2023/11/12 11:36:30;;;;;;;12.73;6.93;;;10.00;89.70;;;;;;5018063;28;20103;-74
2023/11/12 11:41:36;;;;;;;13.82;8.88;;;10.10;89.90;;;;;;5017146;28;20512;-74
2023/11/12 11:44:37;;;;;;;14.10;7.38;;;10.10;89.60;;;;;;5014613;28;20394;-74
2023/11/12 11:47:06;;;;;;;17.38;10.38;;;10.10;89.60;;;;;;5013919;28;20104;-76
2023/11/12 11:49:31;;;;;;;15.55;8.65;;;10.10;89.60;;;;;;5021307;28;20119;-76
2023/11/12 11:52:00;;;;;;;13.32;7.95;;;10.10;89.70;;;;;;5025597;28;20600;-74
2023/11/12 11:54:26;;;;;;;13.10;7.43;;;10.20;89.80;;;;;;5019792;28;20021;-76
2023/11/12 11:56:52;;;;;;;17.40;8.75;;;10.20;89.90;;;;;;5022170;28;20049;-74
2023/11/12 11:59:19;;;;;;;15.45;7.55;;;10.20;89.60;;;;;;5027583;28;20027;-74
2023/11/12 12:01:49;;;;;;;14.48;6.75;;;10.10;89.10;;;;;;5019550;28;20037;-74
2023/11/12 12:04:15;;;;;;;16.38;6.75;;;10.10;89.00;;;;;;5021282;28;20500;-75
2023/11/12 12:06:46;;;;;;;13.85;6.53;;;10.10;89.20;;;;;;5027251;28;20499;-75
2023/11/12 12:09:17;;;;;;;15.18;6.88;;;10.10;89.10;;;;;;5029260;28;20117;-76
2023/11/12 12:11:53;;;;;;;12.15;6.80;;;10.10;89.00;;;;;;5026636;28;20033;-75
2023/11/12 12:14:21;;;;;;;13.52;6.30;;;10.00;88.90;;;;;;5033887;28;20038;-74
2023/11/12 12:16:47;;;;;;;17.25;6.45;;;9.90;89.00;;;;;;5034951;28;20426;-74
2023/11/12 12:19:18;;;;;;;19.27;7.28;;;10.00;89.00;;;;;;5028604;28;20056;-75
2023/11/12 12:21:51;;;;;;;12.88;6.38;;;10.00;89.00;;;;;;5019297;28;20045;-75
2023/11/12 12:24:19;;;;;;;14.38;6.43;;;10.00;89.30;;;;;;5017989;28;20033;-75
2023/11/12 12:26:45;;;;;;;13.93;6.15;;;10.10;89.10;;;;;;5019439;28;20042;-75
2023/11/12 12:29:13;;;;;;;14.25;6.40;;;10.10;89.10;;;;;;5025467;28;20599;-75
2023/11/12 12:31:38;;;;;;;14.00;7.97;;;10.10;89.00;;;;;;5023549;28;20041;-74
2023/11/12 12:34:04;;;;;;;16.85;8.25;;;10.10;89.30;;;;;;5020997;28;20026;-75
2023/11/12 12:36:30;;;;;;;18.88;7.78;;;10.10;88.80;;;;;;5019867;28;20487;-74